East Liverpool, Ohio
Current Conditions -  °F | °C
As of 8:47 AM on Tuesday 21 Oct 2014 (Local Time) from KBVI Reporting Station
Light Rain Light Rain  
Wind Chill: 50°   Ceiling: 400
Heat Index: 50°   Visibility: 2mi
Dew Point: 48°   Wind: 3mph
Humidity: 94%   Direction: 250°WSW
Pressure: 29.86"   Gusts: NA
Location:  40.62°N, 80.58°W
Report Text: KBVI 211247Z 25003KT 2SM -RA OVC004 10/09 A2986
Loading
Personal Weather Stations






























Interactive Weather Map
Tropical Storm Tracking
New forecast layout! Learn more

10-Day Weather Forecast

Advertisements
Track Severe Weather on mobile